Time;durP1;ratioP1;P1;durP2;ratioP2;P2;SDS_P1;SDS_P2;PMS_P1;PMS_P2;Temp;Humidity;BMP_temperature;BMP_pressure;BME280_temperature;BME280_humidity;BME280_pressure;Samples;Min_cycle;Max_cycle;Signal;HPM_P1;HPM_P2
2022/09/30 00:01:32;;;;;;;8.47;6.93;;;9.30;99.90;;;;;;5029883;28;20714;-52
2022/09/30 00:03:59;;;;;;;7.90;7.13;;;9.20;99.90;;;;;;5020796;28;20204;-51
2022/09/30 00:06:28;;;;;;;8.47;7.53;;;9.20;99.90;;;;;;5023362;28;20207;-52
2022/09/30 00:08:56;;;;;;;7.93;7.13;;;9.20;99.90;;;;;;5023170;28;20633;-51
2022/09/30 00:11:29;;;;;;;8.40;7.50;;;9.10;99.90;;;;;;5026388;28;20652;-51
2022/09/30 00:13:57;;;;;;;9.03;7.67;;;9.10;99.90;;;;;;5020835;28;20716;-50
2022/09/30 00:16:27;;;;;;;11.27;7.60;;;9.20;99.90;;;;;;5024637;28;20672;-50
2022/09/30 00:18:55;;;;;;;9.57;8.40;;;9.20;99.90;;;;;;5018676;28;20230;-50
2022/09/30 00:21:23;;;;;;;10.20;8.13;;;9.20;99.90;;;;;;5012683;28;20290;-51
2022/09/30 00:23:51;;;;;;;9.83;8.47;;;9.20;99.90;;;;;;5019926;28;20212;-51
2022/09/30 00:26:20;;;;;;;8.27;7.47;;;9.20;99.90;;;;;;5014495;28;20244;-50
2022/09/30 00:28:56;;;;;;;8.07;7.27;;;9.10;99.90;;;;;;5017712;28;20201;-55
2022/09/30 00:31:28;;;;;;;7.97;7.17;;;9.10;99.90;;;;;;5022969;28;20570;-51
2022/09/30 00:34:07;;;;;;;6.57;5.90;;;9.00;99.90;;;;;;5030196;28;20235;-51
2022/09/30 00:36:42;;;;;;;7.83;6.37;;;9.00;99.90;;;;;;5030603;28;20198;-51
2022/09/30 00:39:21;;;;;;;7.37;6.00;;;9.00;99.90;;;;;;5030926;28;20297;-51
2022/09/30 00:41:51;;;;;;;7.33;6.27;;;9.00;99.90;;;;;;5022936;28;20201;-53
2022/09/30 00:44:57;;;;;;;7.90;6.13;;;9.00;99.90;;;;;;5031011;28;20208;-51
2022/09/30 00:47:36;;;;;;;6.83;6.13;;;8.90;99.90;;;;;;5018859;28;20212;-52
2022/09/30 00:50:16;;;;;;;7.10;6.40;;;8.90;99.90;;;;;;5022103;28;20266;-53
2022/09/30 00:52:45;;;;;;;6.43;5.80;;;8.90;99.90;;;;;;5017865;28;20206;-51
2022/09/30 00:55:40;;;;;;;6.53;5.93;;;9.00;99.90;;;;;;5026830;28;20198;-51
2022/09/30 00:58:10;;;;;;;6.43;5.57;;;8.90;99.90;;;;;;5019967;28;20579;-52
2022/09/30 01:00:37;;;;;;;6.07;5.50;;;8.80;99.90;;;;;;5017405;28;20671;-52
2022/09/30 01:03:05;;;;;;;7.03;6.33;;;8.90;99.90;;;;;;5014861;28;20199;-51
2022/09/30 01:05:34;;;;;;;7.40;6.27;;;8.80;99.90;;;;;;5013013;28;20196;-50
2022/09/30 01:08:03;;;;;;;6.57;5.90;;;8.80;99.90;;;;;;5010840;28;20207;-52
2022/09/30 01:10:30;;;;;;;7.77;6.90;;;8.70;99.90;;;;;;5024950;28;20641;-53
2022/09/30 01:12:58;;;;;;;8.03;6.50;;;8.80;99.90;;;;;;5022008;28;20789;-51
2022/09/30 01:15:58;;;;;;;7.63;6.93;;;8.70;99.90;;;;;;5022704;28;20367;-52
2022/09/30 01:18:50;;;;;;;9.87;7.67;;;8.70;99.90;;;;;;5018168;28;20547;-51
2022/09/30 01:21:48;;;;;;;7.30;6.60;;;8.70;99.90;;;;;;5031906;28;20639;-51
2022/09/30 01:24:39;;;;;;;6.87;6.17;;;8.80;99.90;;;;;;5027950;28;20212;-51
2022/09/30 01:27:16;;;;;;;6.73;6.13;;;8.70;99.90;;;;;;5030489;28;20198;-53
2022/09/30 01:30:22;;;;;;;7.93;7.13;;;8.80;99.90;;;;;;5030592;28;20210;-51
2022/09/30 01:33:09;;;;;;;6.77;6.17;;;8.70;99.90;;;;;;5021197;28;20206;-51
2022/09/30 01:36:08;;;;;;;8.10;6.30;;;8.70;99.90;;;;;;5022395;28;20208;-52
2022/09/30 01:38:51;;;;;;;7.63;6.93;;;8.60;99.90;;;;;;5029700;28;20238;-53
2022/09/30 01:41:32;;;;;;;8.43;7.53;;;8.60;99.90;;;;;;5032513;28;20600;-51
2022/09/30 01:44:12;;;;;;;10.73;7.40;;;8.70;99.90;;;;;;5032611;28;20206;-52
2022/09/30 01:46:44;;;;;;;9.10;7.77;;;8.70;99.90;;;;;;5024219;28;20200;-51
2022/09/30 01:49:40;;;;;;;8.37;7.57;;;8.70;99.90;;;;;;5021353;28;20787;-53
2022/09/30 01:52:14;;;;;;;7.70;6.93;;;8.70;99.90;;;;;;5030352;28;20248;-52
2022/09/30 01:54:48;;;;;;;10.80;7.70;;;8.70;99.90;;;;;;5033151;28;20459;-53
2022/09/30 01:57:25;;;;;;;8.80;7.90;;;8.70;99.90;;;;;;5031235;28;20202;-53
2022/09/30 02:00:10;;;;;;;7.20;6.50;;;8.60;99.90;;;;;;5030534;28;20670;-52
2022/09/30 02:02:55;;;;;;;8.33;7.50;;;8.50;99.90;;;;;;5028843;28;20496;-51
2022/09/30 02:05:33;;;;;;;8.80;7.33;;;8.60;99.90;;;;;;5024276;28;20544;-51
2022/09/30 02:08:04;;;;;;;7.17;6.47;;;8.50;99.90;;;;;;5031657;28;20209;-52
2022/09/30 02:10:55;;;;;;;11.47;7.40;;;8.50;99.90;;;;;;5030849;28;20198;-51
2022/09/30 02:13:34;;;;;;;7.73;6.70;;;8.40;99.90;;;;;;5027867;28;20621;-52
2022/09/30 02:16:11;;;;;;;7.63;6.83;;;8.50;99.90;;;;;;5021695;28;20247;-52
2022/09/30 02:18:46;;;;;;;8.70;7.10;;;8.50;99.90;;;;;;5020530;28;20203;-51
2022/09/30 02:21:19;;;;;;;9.50;7.23;;;8.50;99.90;;;;;;5031531;28;20203;-52
2022/09/30 02:23:51;;;;;;;8.27;7.47;;;8.40;99.90;;;;;;5025532;28;20246;-51
2022/09/30 02:26:23;;;;;;;9.03;8.13;;;8.40;99.90;;;;;;5034043;28;20240;-53
2022/09/30 02:29:02;;;;;;;10.37;8.13;;;8.50;99.90;;;;;;5032985;28;20284;-52
2022/09/30 02:31:32;;;;;;;11.07;8.23;;;8.40;99.90;;;;;;5024478;28;20198;-51
2022/09/30 02:34:12;;;;;;;9.73;8.37;;;8.40;99.90;;;;;;5011393;28;20298;-54
2022/09/30 02:36:53;;;;;;;9.40;7.63;;;8.40;99.90;;;;;;5011146;28;20217;-54
2022/09/30 02:39:28;;;;;;;9.70;8.17;;;8.50;99.90;;;;;;5023079;28;20212;-53
2022/09/30 02:42:03;;;;;;;8.63;7.57;;;8.50;99.90;;;;;;5014271;28;20200;-51
2022/09/30 02:44:30;;;;;;;10.03;8.00;;;8.50;99.90;;;;;;5010246;28;20212;-52
2022/09/30 02:47:06;;;;;;;9.07;8.13;;;8.40;99.90;;;;;;5015748;28;20259;-51
2022/09/30 02:49:46;;;;;;;9.53;8.53;;;8.40;99.90;;;;;;5016125;28;20200;-53
2022/09/30 02:52:39;;;;;;;12.67;8.63;;;8.30;99.90;;;;;;5016242;28;20284;-52
2022/09/30 02:55:24;;;;;;;12.70;8.70;;;8.30;99.90;;;;;;5015116;28;20579;-51
2022/09/30 02:58:16;;;;;;;12.03;9.80;;;8.30;99.90;;;;;;5019943;28;20194;-52
2022/09/30 03:00:44;;;;;;;15.10;9.40;;;8.40;99.90;;;;;;5016448;28;20708;-51
2022/09/30 03:03:26;;;;;;;12.93;9.60;;;8.30;99.90;;;;;;5015286;28;20208;-51
2022/09/30 03:05:52;;;;;;;11.17;8.90;;;8.40;99.90;;;;;;5016619;28;20217;-53
2022/09/30 03:08:19;;;;;;;10.17;8.60;;;8.30;99.90;;;;;;5016901;28;20587;-52
2022/09/30 03:10:51;;;;;;;10.50;8.73;;;8.20;99.90;;;;;;5012144;28;20210;-53
2022/09/30 03:13:27;;;;;;;10.77;8.83;;;8.20;99.90;;;;;;5016817;28;20653;-54
2022/09/30 03:16:07;;;;;;;12.07;9.20;;;8.30;99.90;;;;;;5013616;28;20200;-53
2022/09/30 03:18:56;;;;;;;10.83;9.17;;;8.40;99.90;;;;;;5010250;28;20194;-53
2022/09/30 03:21:31;;;;;;;11.77;9.40;;;8.40;99.90;;;;;;5014562;28;20572;-52
2022/09/30 03:24:06;;;;;;;10.03;8.80;;;8.40;99.90;;;;;;5016065;28;20276;-52
2022/09/30 03:26:48;;;;;;;11.47;9.97;;;8.40;99.90;;;;;;5013535;28;20202;-53
2022/09/30 03:29:30;;;;;;;10.13;8.97;;;8.30;99.90;;;;;;5013832;28;20568;-54
2022/09/30 03:32:11;;;;;;;12.90;9.37;;;8.20;99.90;;;;;;5032486;28;20693;-52
2022/09/30 03:35:05;;;;;;;11.07;9.77;;;8.20;99.90;;;;;;5015683;28;20287;-52
2022/09/30 03:37:58;;;;;;;11.23;9.00;;;8.20;99.90;;;;;;5016401;28;20213;-51
2022/09/30 03:40:49;;;;;;;12.10;9.40;;;8.20;99.90;;;;;;5017879;28;20206;-51
2022/09/30 03:43:25;;;;;;;12.70;9.83;;;8.20;99.90;;;;;;5015954;28;20197;-51
2022/09/30 03:46:15;;;;;;;14.70;11.07;;;8.30;99.90;;;;;;5017378;28;20625;-54
2022/09/30 03:48:43;;;;;;;13.77;10.00;;;8.30;99.90;;;;;;5014618;28;20254;-52
2022/09/30 03:51:11;;;;;;;12.13;10.60;;;8.30;99.90;;;;;;5012522;28;20267;-53
2022/09/30 03:53:42;;;;;;;12.63;9.63;;;8.30;99.90;;;;;;5016454;28;20230;-51
2022/09/30 03:56:09;;;;;;;13.80;10.17;;;8.30;99.90;;;;;;5012617;28;20202;-55
2022/09/30 03:58:43;;;;;;;13.33;10.33;;;8.30;99.90;;;;;;5015536;28;20198;-54
2022/09/30 04:01:20;;;;;;;11.77;10.23;;;8.30;99.90;;;;;;5012907;28;20230;-55
2022/09/30 04:03:51;;;;;;;13.07;9.90;;;8.20;99.90;;;;;;5018604;28;20555;-54
2022/09/30 04:06:20;;;;;;;11.77;9.77;;;8.20;99.90;;;;;;5018411;28;20204;-53
2022/09/30 04:08:48;;;;;;;13.50;9.53;;;8.30;99.90;;;;;;5019876;28;20215;-53
2022/09/30 04:11:15;;;;;;;13.40;10.27;;;8.20;99.90;;;;;;5014789;28;20204;-52
2022/09/30 04:13:42;;;;;;;14.13;10.83;;;8.20;99.90;;;;;;5011875;28;20297;-54
2022/09/30 04:16:09;;;;;;;16.90;11.13;;;8.20;99.90;;;;;;5018235;28;20207;-54
2022/09/30 04:18:37;;;;;;;17.30;12.93;;;8.20;99.90;;;;;;5013864;28;20194;-54
2022/09/30 04:21:06;;;;;;;16.77;11.67;;;8.10;99.90;;;;;;5016146;28;20390;-53
2022/09/30 04:23:37;;;;;;;14.53;11.47;;;8.20;99.90;;;;;;5013804;28;20202;-54
2022/09/30 04:26:05;;;;;;;15.87;12.03;;;8.30;99.90;;;;;;5021583;28;20230;-53
2022/09/30 04:28:33;;;;;;;14.50;11.73;;;8.20;99.90;;;;;;5025079;28;20590;-53
2022/09/30 04:31:01;;;;;;;16.57;12.77;;;8.20;99.90;;;;;;5030315;28;20223;-53
2022/09/30 04:33:28;;;;;;;15.63;12.57;;;8.30;99.90;;;;;;5017796;28;20216;-53
2022/09/30 04:35:57;;;;;;;14.07;12.07;;;8.30;99.90;;;;;;5022539;28;20223;-52
2022/09/30 04:38:25;;;;;;;17.27;12.57;;;7.90;99.90;;;;;;5020547;28;20587;-52
2022/09/30 04:40:56;;;;;;;17.23;12.30;;;7.80;99.90;;;;;;5031001;28;20204;-54
2022/09/30 04:43:23;;;;;;;19.43;12.57;;;7.80;99.90;;;;;;5026369;28;20200;-53
2022/09/30 04:45:51;;;;;;;15.07;12.50;;;7.90;99.90;;;;;;5022400;28;20208;-53
2022/09/30 04:48:21;;;;;;;16.97;12.23;;;7.90;99.90;;;;;;5031255;28;20207;-53
2022/09/30 04:50:48;;;;;;;15.83;11.60;;;8.00;99.90;;;;;;5017297;28;20243;-52
2022/09/30 04:53:18;;;;;;;17.00;12.40;;;8.20;99.90;;;;;;5028214;28;20217;-54
2022/09/30 04:55:45;;;;;;;16.37;12.70;;;8.10;99.90;;;;;;5031763;28;20624;-53
2022/09/30 04:58:12;;;;;;;14.40;11.90;;;8.20;99.90;;;;;;5024782;28;20256;-52
2022/09/30 05:00:39;;;;;;;14.90;12.33;;;8.10;99.90;;;;;;5023504;28;20199;-53
2022/09/30 05:03:06;;;;;;;16.70;11.63;;;8.10;99.90;;;;;;5020711;28;20242;-55
2022/09/30 05:05:33;;;;;;;14.47;11.63;;;8.00;99.90;;;;;;5022446;28;20207;-53
2022/09/30 05:08:01;;;;;;;15.70;11.63;;;8.00;99.90;;;;;;5021767;28;20195;-54
2022/09/30 05:10:28;;;;;;;14.57;11.57;;;8.10;99.90;;;;;;5018464;28;20207;-54
2022/09/30 05:12:57;;;;;;;17.33;13.00;;;8.10;99.90;;;;;;5018471;28;20212;-53
2022/09/30 05:15:24;;;;;;;14.53;12.30;;;8.00;99.90;;;;;;5019960;28;20209;-53
2022/09/30 05:17:52;;;;;;;14.90;12.23;;;8.00;99.90;;;;;;5024011;28;20210;-53
2022/09/30 05:20:19;;;;;;;16.30;12.43;;;8.10;99.90;;;;;;5027524;28;20288;-52
2022/09/30 05:22:52;;;;;;;14.87;12.07;;;8.00;99.90;;;;;;5021653;28;20194;-52
2022/09/30 05:25:19;;;;;;;15.37;11.67;;;8.00;99.90;;;;;;5023572;28;20363;-52
2022/09/30 05:27:48;;;;;;;14.90;11.63;;;8.10;99.90;;;;;;5022963;28;20211;-52
2022/09/30 05:30:15;;;;;;;16.07;12.33;;;8.10;99.90;;;;;;5024996;28;20217;-53
2022/09/30 05:32:43;;;;;;;15.47;12.17;;;8.10;99.90;;;;;;5034902;28;20208;-53
2022/09/30 05:35:10;;;;;;;14.03;11.07;;;8.00;99.90;;;;;;5023783;28;20217;-53
2022/09/30 05:37:38;;;;;;;16.67;12.70;;;8.00;99.90;;;;;;5020146;28;20220;-53
2022/09/30 05:40:06;;;;;;;16.13;12.47;;;7.80;99.90;;;;;;5020170;28;20194;-52
2022/09/30 05:42:34;;;;;;;16.47;13.10;;;7.80;99.90;;;;;;5024090;28;20189;-55
2022/09/30 05:45:05;;;;;;;15.87;12.53;;;7.90;99.90;;;;;;5021565;28;20203;-53
2022/09/30 05:47:33;;;;;;;16.07;12.73;;;7.90;99.90;;;;;;5027955;28;20660;-53
2022/09/30 05:50:00;;;;;;;15.70;12.37;;;7.90;99.90;;;;;;5020378;28;20283;-53
2022/09/30 05:52:28;;;;;;;18.23;12.63;;;7.90;99.90;;;;;;5022473;28;20204;-54
2022/09/30 05:54:56;;;;;;;15.17;12.10;;;8.00;99.90;;;;;;5038058;28;20208;-52
2022/09/30 05:57:24;;;;;;;16.83;12.70;;;8.00;99.90;;;;;;5022450;28;20207;-51
2022/09/30 05:59:50;;;;;;;16.07;13.33;;;8.00;99.90;;;;;;5026356;28;20651;-52
2022/09/30 06:02:17;;;;;;;17.80;12.87;;;8.00;99.90;;;;;;5014137;28;20227;-54
2022/09/30 06:04:44;;;;;;;16.93;12.17;;;8.00;99.90;;;;;;5020805;28;20197;-53
2022/09/30 06:07:12;;;;;;;15.10;12.73;;;8.00;99.90;;;;;;5022831;28;20200;-53
2022/09/30 06:09:39;;;;;;;15.70;12.57;;;8.00;99.90;;;;;;5023551;28;20202;-53
2022/09/30 06:12:07;;;;;;;14.57;12.30;;;8.10;99.90;;;;;;5031102;28;20296;-53
2022/09/30 06:14:33;;;;;;;15.73;12.07;;;8.10;99.90;;;;;;5047443;28;20325;-53
2022/09/30 06:17:00;;;;;;;17.93;12.60;;;8.10;99.90;;;;;;5038700;28;20215;-53
2022/09/30 06:19:29;;;;;;;16.40;12.23;;;8.00;99.90;;;;;;5036843;28;20215;-53
2022/09/30 06:21:57;;;;;;;17.70;13.43;;;8.20;99.90;;;;;;5030889;28;20598;-53
2022/09/30 06:24:24;;;;;;;16.20;12.77;;;8.10;99.90;;;;;;5028394;28;20198;-53
2022/09/30 06:26:50;;;;;;;16.20;13.23;;;8.10;99.90;;;;;;4658080;28;10000243;-53
2022/09/30 06:29:18;;;;;;;17.80;13.87;;;8.20;99.90;;;;;;5014189;28;20292;-53
2022/09/30 06:31:45;;;;;;;15.87;13.07;;;8.20;99.90;;;;;;5027982;28;20236;-54
2022/09/30 06:34:12;;;;;;;17.33;14.10;;;8.20;99.90;;;;;;5024611;28;20234;-53
2022/09/30 06:36:39;;;;;;;19.00;14.27;;;8.20;99.90;;;;;;5029387;28;20294;-53
2022/09/30 06:39:06;;;;;;;16.97;13.53;;;8.20;99.90;;;;;;5020340;28;20207;-52
2022/09/30 06:41:42;;;;;;;16.87;13.93;;;8.30;99.90;;;;;;5019521;28;20287;-52
2022/09/30 06:44:10;;;;;;;17.03;13.63;;;8.30;99.90;;;;;;5019407;28;20685;-53
2022/09/30 06:46:37;;;;;;;19.13;13.40;;;8.30;99.90;;;;;;5019541;28;20675;-51
2022/09/30 06:49:19;;;;;;;17.23;13.33;;;8.30;99.90;;;;;;5016806;28;20566;-53
2022/09/30 06:51:45;;;;;;;18.07;14.13;;;8.40;99.90;;;;;;5020680;28;20237;-53
2022/09/30 06:54:12;;;;;;;17.30;14.47;;;8.40;99.90;;;;;;5017325;28;20224;-52
2022/09/30 06:56:39;;;;;;;19.47;14.77;;;8.40;99.90;;;;;;5017494;28;20561;-53
2022/09/30 06:59:06;;;;;;;21.07;15.73;;;8.50;99.90;;;;;;5017272;28;20206;-52
2022/09/30 07:01:32;;;;;;;17.13;14.43;;;8.60;99.90;;;;;;5022647;28;20238;-53
2022/09/30 07:04:02;;;;;;;20.60;15.17;;;8.70;99.90;;;;;;5021656;28;20970;-53
2022/09/30 07:06:29;;;;;;;17.57;15.17;;;8.90;99.90;;;;;;5018007;28;20669;-53
2022/09/30 07:08:56;;;;;;;16.63;14.53;;;9.00;99.90;;;;;;5015136;28;20210;-53
2022/09/30 07:11:24;;;;;;;19.23;15.23;;;9.00;99.90;;;;;;5018832;28;20197;-55
2022/09/30 07:13:50;;;;;;;19.20;15.57;;;9.10;99.90;;;;;;5024300;28;20641;-53
2022/09/30 07:16:20;;;;;;;18.90;15.27;;;9.20;99.90;;;;;;5009838;28;20269;-53
2022/09/30 07:18:47;;;;;;;20.33;15.10;;;9.30;99.90;;;;;;5016581;28;20664;-52
2022/09/30 07:21:14;;;;;;;19.20;15.27;;;9.30;99.90;;;;;;5021349;28;20209;-52
2022/09/30 07:23:46;;;;;;;18.97;15.50;;;9.40;99.90;;;;;;5017223;28;20709;-53
2022/09/30 07:26:15;;;;;;;27.37;16.23;;;9.50;99.90;;;;;;5011930;28;20233;-53
2022/09/30 07:28:43;;;;;;;24.37;16.70;;;9.60;99.90;;;;;;5009395;28;20211;-52
2022/09/30 07:31:15;;;;;;;20.23;16.40;;;9.50;99.90;;;;;;5022048;28;20204;-52
2022/09/30 07:34:07;;;;;;;21.13;15.57;;;9.70;99.90;;;;;;5016705;28;20224;-53
2022/09/30 07:36:36;;;;;;;21.80;16.17;;;9.60;99.90;;;;;;5023234;28;20237;-53
2022/09/30 07:39:06;;;;;;;20.13;15.97;;;9.60;99.90;;;;;;5016020;28;20289;-53
2022/09/30 07:41:36;;;;;;;18.50;15.83;;;9.80;99.90;;;;;;5018446;28;20700;-53
2022/09/30 07:44:05;;;;;;;20.73;16.43;;;10.00;99.90;;;;;;5025938;28;20189;-52
2022/09/30 07:46:35;;;;;;;19.00;14.77;;;10.10;99.90;;;;;;5014413;28;20215;-53
2022/09/30 07:49:04;;;;;;;18.77;14.83;;;10.10;99.90;;;;;;5022873;28;20660;-52
2022/09/30 07:51:34;;;;;;;17.37;15.10;;;10.20;99.90;;;;;;5016458;28;20327;-53
2022/09/30 07:54:11;;;;;;;19.63;14.37;;;10.50;99.90;;;;;;5019233;28;20201;-55
2022/09/30 07:56:38;;;;;;;18.37;14.70;;;10.60;99.90;;;;;;5017782;28;20223;-53
2022/09/30 07:59:27;;;;;;;18.53;14.87;;;10.80;99.90;;;;;;5015260;28;20237;-54
2022/09/30 08:01:54;;;;;;;18.73;14.83;;;10.90;1.00;;;;;;5012317;28;20227;-53
2022/09/30 08:04:23;;;;;;;17.60;14.87;;;11.00;1.00;;;;;;5022003;28;20640;-53
2022/09/30 08:06:55;;;;;;;19.60;14.23;;;11.40;1.00;;;;;;5017762;28;20204;-53
2022/09/30 08:09:23;;;;;;;16.27;14.20;;;11.60;82.30;;;;;;5016520;28;20607;-53
2022/09/30 08:11:51;;;;;;;15.63;13.43;;;11.90;1.00;;;;;;5013251;28;20201;-53
2022/09/30 08:14:21;;;;;;;16.37;13.70;;;11.90;99.90;;;;;;5014445;28;20193;-53
2022/09/30 08:16:48;;;;;;;15.07;12.83;;;11.90;99.90;;;;;;5015833;28;20209;-53
2022/09/30 08:19:21;;;;;;;14.60;12.30;;;12.50;1.00;;;;;;5014077;28;20194;-49
2022/09/30 08:21:49;;;;;;;12.93;11.30;;;12.80;1.00;;;;;;5015070;28;20200;-52
2022/09/30 08:24:16;;;;;;;14.00;10.93;;;13.20;99.90;;;;;;5017451;28;20189;-54
2022/09/30 08:26:43;;;;;;;12.17;10.70;;;13.50;1.00;;;;;;5018252;28;20632;-52
2022/09/30 08:29:12;;;;;;;10.97;9.80;;;13.50;99.90;;;;;;5020208;28;20921;-52
2022/09/30 08:31:46;;;;;;;13.13;9.83;;;13.30;1.00;;;;;;5020967;28;20199;-52
2022/09/30 08:34:14;;;;;;;11.57;9.53;;;13.90;1.00;;;;;;5020343;28;20299;-53
2022/09/30 08:36:41;;;;;;;12.23;9.87;;;13.80;1.00;;;;;;5013497;28;20698;-55
2022/09/30 08:39:09;;;;;;;10.60;9.07;;;14.00;1.00;;;;;;5019162;28;20295;-53
2022/09/30 08:41:42;;;;;;;11.00;9.37;;;14.40;99.90;;;;;;5013496;28;20204;-54
2022/09/30 08:44:41;;;;;;;10.43;9.37;;;14.70;99.90;;;;;;5012726;28;20201;-53
2022/09/30 08:47:45;;;;;;;11.17;8.83;;;14.60;1.00;;;;;;5010584;28;20687;-52
2022/09/30 08:50:21;;;;;;;9.60;8.70;;;14.80;1.00;;;;;;5010815;28;20691;-52
2022/09/30 08:52:56;;;;;;;11.57;8.70;;;15.20;1.00;;;;;;5023088;28;20195;-53
2022/09/30 08:55:28;;;;;;;9.27;8.37;;;15.10;99.90;;;;;;5019757;28;20567;-53
2022/09/30 08:57:55;;;;;;;10.10;8.93;;;15.10;1.00;;;;;;5023296;28;20207;-52
2022/09/30 09:00:23;;;;;;;10.20;8.87;;;14.80;99.90;;;;;;5019841;28;20295;-53
2022/09/30 09:02:53;;;;;;;10.37;9.17;;;15.40;1.00;;;;;;5014831;28;20217;-55
2022/09/30 09:05:39;;;;;;;11.57;9.17;;;15.40;1.00;;;;;;5014278;28;20284;-53
2022/09/30 09:08:35;;;;;;;10.70;9.70;;;15.40;1.00;;;;;;5014101;28;20315;-53
2022/09/30 09:11:41;;;;;;;10.13;8.83;;;14.90;1.00;;;;;;5019373;28;20201;-53
2022/09/30 09:14:15;;;;;;;10.50;9.50;;;14.40;1.00;;;;;;5016306;28;20707;-53
2022/09/30 09:16:50;;;;;;;10.73;9.23;;;14.20;28.10;;;;;;5021718;28;20219;-53
2022/09/30 09:19:24;;;;;;;10.57;8.53;;;14.20;1.00;;;;;;5013595;28;20208;-52
2022/09/30 09:22:00;;;;;;;8.63;7.73;;;14.30;1.00;;;;;;5018050;28;20197;-52
2022/09/30 09:24:34;;;;;;;9.87;8.83;;;14.60;1.00;;;;;;5018237;28;20193;-53
2022/09/30 09:27:12;;;;;;;9.50;8.50;;;14.70;99.90;;;;;;5016168;28;20640;-54
2022/09/30 09:29:52;;;;;;;8.93;8.00;;;14.60;1.00;;;;;;5014372;28;20208;-53
2022/09/30 09:32:19;;;;;;;8.33;7.47;;;14.70;99.90;;;;;;5023158;28;20208;-53
2022/09/30 09:34:54;;;;;;;8.77;7.83;;;14.80;1.00;;;;;;5014902;28;20210;-52
2022/09/30 09:40:59;;;;;;;9.00;7.13;;;14.70;99.90;;;;;;5018556;28;20201;-53
2022/09/30 09:43:48;;;;;;;8.43;7.43;;;14.80;1.00;;;;;;5013246;28;20391;-53
2022/09/30 09:46:40;;;;;;;7.47;6.77;;;14.90;99.90;;;;;;5012096;28;20198;-53
2022/09/30 09:49:19;;;;;;;8.93;7.23;;;15.00;1.00;;;;;;5015804;28;20205;-54
2022/09/30 09:52:03;;;;;;;10.37;6.37;;;15.30;1.00;;;;;;5011389;28;20329;-53
2022/09/30 09:54:31;;;;;;;6.63;5.57;;;15.00;99.90;;;;;;5017775;28;20545;-52
2022/09/30 09:57:10;;;;;;;6.93;6.07;;;15.00;1.00;;;;;;5020249;28;20213;-54
2022/09/30 09:59:52;;;;;;;6.00;5.40;;;15.20;1.00;;;;;;5015297;28;20560;-53
2022/09/30 10:02:25;;;;;;;8.83;5.90;;;15.30;1.00;;;;;;5017407;28;21443;-53
2022/09/30 10:05:02;;;;;;;6.60;5.40;;;15.20;1.00;;;;;;5014078;28;20360;-51
2022/09/30 10:07:32;;;;;;;6.60;5.47;;;15.20;1.00;;;;;;5014951;28;20199;-54
2022/09/30 10:10:17;;;;;;;5.77;4.97;;;15.20;1.00;;;;;;5023008;28;20570;-53
2022/09/30 10:12:49;;;;;;;7.03;6.20;;;15.30;1.00;;;;;;5016333;28;20206;-53
2022/09/30 10:15:22;;;;;;;6.37;5.53;;;15.40;66.90;;;;;;5013410;28;20197;-52
2022/09/30 10:17:52;;;;;;;5.90;5.20;;;15.50;1.00;;;;;;5018594;28;20223;-54
2022/09/30 10:20:30;;;;;;;6.20;4.63;;;15.40;1.00;;;;;;5010649;28;20209;-54
2022/09/30 10:23:18;;;;;;;5.23;4.73;;;15.50;1.00;;;;;;5010546;28;20202;-52
2022/09/30 10:26:18;;;;;;;5.73;4.77;;;15.40;99.90;;;;;;5010163;28;20752;-53
2022/09/30 10:28:58;;;;;;;6.67;5.50;;;15.50;1.00;;;;;;5014387;28;20324;-52
2022/09/30 10:31:35;;;;;;;5.30;4.10;;;15.60;1.00;;;;;;5014221;28;20678;-53
2022/09/30 10:34:29;;;;;;;4.00;3.60;;;15.60;99.90;;;;;;5012554;28;20230;-53
2022/09/30 10:37:01;;;;;;;3.97;3.40;;;15.80;1.00;;;;;;5005437;28;20577;-53
2022/09/30 10:39:36;;;;;;;4.23;3.50;;;15.70;1.00;;;;;;5012734;28;20206;-51
2022/09/30 10:42:07;;;;;;;4.33;3.50;;;15.50;1.00;;;;;;5011558;28;20202;-53
2022/09/30 10:44:48;;;;;;;4.20;3.37;;;15.40;1.00;;;;;;5020531;28;20484;-53
2022/09/30 10:47:26;;;;;;;8.37;3.33;;;15.70;1.00;;;;;;5009464;28;20211;-53
2022/09/30 10:50:06;;;;;;;3.13;2.83;;;16.00;24.30;;;;;;5013335;28;20568;-53
2022/09/30 10:52:49;;;;;;;5.20;3.23;;;16.00;1.00;;;;;;5014074;28;20302;-52
2022/09/30 10:55:18;;;;;;;5.03;3.63;;;16.00;1.00;;;;;;5015419;28;20677;-52
2022/09/30 10:57:47;;;;;;;3.60;3.07;;;16.00;1.00;;;;;;5012931;28;20285;-53
2022/09/30 11:00:20;;;;;;;4.50;2.53;;;15.90;1.00;;;;;;5009799;28;20205;-53
2022/09/30 11:03:10;;;;;;;5.53;2.83;;;15.70;1.00;;;;;;5011190;28;20691;-53
2022/09/30 11:05:43;;;;;;;2.63;2.43;;;15.80;99.90;;;;;;5012149;28;20213;-53
2022/09/30 11:08:29;;;;;;;4.47;2.20;;;16.00;1.00;;;;;;5021573;28;21926;-51
2022/09/30 11:11:09;;;;;;;1.97;1.77;;;15.90;99.90;;;;;;5007830;28;21955;-54
2022/09/30 11:13:49;;;;;;;2.47;2.00;;;16.00;99.90;;;;;;5008434;28;20205;-53
2022/09/30 11:16:53;;;;;;;3.27;1.80;;;16.00;99.90;;;;;;5011793;28;20213;-53
2022/09/30 11:19:49;;;;;;;4.07;1.93;;;16.10;21.10;;;;;;5014763;28;20259;-54
2022/09/30 11:22:52;;;;;;;6.63;2.33;;;16.10;1.00;;;;;;5009866;28;20211;-53
2022/09/30 11:25:25;;;;;;;2.20;1.60;;;16.00;99.90;;;;;;5012197;28;21182;-53
2022/09/30 11:28:39;;;;;;;3.10;1.60;;;16.10;1.00;;;;;;5007687;28;20193;-53
2022/09/30 11:31:12;;;;;;;1.87;1.70;;;16.40;1.00;;;;;;5012573;28;20393;-52
2022/09/30 11:33:53;;;;;;;2.47;2.27;;;16.60;1.00;;;;;;5011172;28;20217;-53
2022/09/30 11:36:32;;;;;;;3.17;2.00;;;16.90;1.00;;;;;;5009128;28;20674;-52
2022/09/30 11:39:37;;;;;;;2.80;1.80;;;17.10;1.00;;;;;;5012779;28;20209;-53
2022/09/30 11:42:30;;;;;;;3.00;1.87;;;17.10;1.00;;;;;;5011238;28;20202;-52
2022/09/30 11:45:31;;;;;;;2.20;2.00;;;17.20;1.00;;;;;;5009834;28;20544;-52
2022/09/30 11:48:06;;;;;;;1.70;1.53;;;17.20;1.00;;;;;;5015523;28;20593;-52
2022/09/30 11:50:44;;;;;;;2.37;1.70;;;17.60;1.00;;;;;;5017993;28;20231;-52
2022/09/30 11:53:24;;;;;;;1.67;1.57;;;17.80;99.90;;;;;;5011065;28;20210;-53
2022/09/30 11:56:16;;;;;;;2.07;1.80;;;17.90;1.00;;;;;;5016583;28;20222;-52
2022/09/30 11:58:48;;;;;;;2.57;1.80;;;18.30;1.00;;;;;;5014793;28;20555;-52
2022/09/30 12:01:25;;;;;;;1.70;1.60;;;18.30;99.90;;;;;;5019855;28;20229;-53
2022/09/30 12:04:18;;;;;;;2.00;1.80;;;18.30;99.90;;;;;;5012574;28;20204;-53
2022/09/30 12:06:51;;;;;;;3.83;2.03;;;18.10;99.90;;;;;;5013627;28;20196;-52
2022/09/30 12:09:52;;;;;;;1.50;1.40;;;18.40;99.90;;;;;;5013584;28;20207;-53
2022/09/30 12:12:19;;;;;;;2.20;1.73;;;18.90;99.90;;;;;;5013530;28;20221;-53
2022/09/30 12:14:52;;;;;;;3.03;1.97;;;18.90;99.90;;;;;;5015346;28;20224;-53
2022/09/30 12:17:45;;;;;;;1.90;1.60;;;18.90;99.90;;;;;;5005783;28;20250;-52
2022/09/30 12:20:40;;;;;;;4.80;2.53;;;19.00;99.90;;;;;;5010171;28;20210;-52
2022/09/30 12:23:36;;;;;;;2.23;2.03;;;18.50;99.90;;;;;;5008578;28;20212;-53
2022/09/30 12:26:04;;;;;;;4.43;2.03;;;17.90;1.00;;;;;;5008701;28;20239;-52
2022/09/30 12:32:25;;;;;;;2.63;2.07;;;17.80;1.00;;;;;;5006824;28;20327;-53
2022/09/30 12:35:04;;;;;;;2.73;2.00;;;18.40;1.00;;;;;;5010005;28;20205;-58
2022/09/30 12:37:53;;;;;;;2.63;2.13;;;18.80;99.90;;;;;;5001428;28;20291;-53
2022/09/30 12:40:53;;;;;;;4.20;2.30;;;18.70;99.90;;;;;;5008551;28;20209;-52
2022/09/30 12:43:35;;;;;;;4.77;1.87;;;18.10;99.90;;;;;;5007569;28;20291;-53
2022/09/30 12:46:14;;;;;;;2.37;2.10;;;18.40;99.90;;;;;;5006061;28;20291;-52
2022/09/30 12:49:04;;;;;;;2.83;1.87;;;18.90;99.90;;;;;;5009249;28;20607;-52
2022/09/30 12:51:40;;;;;;;3.43;2.30;;;18.40;99.90;;;;;;5004826;28;20233;-52
2022/09/30 12:54:24;;;;;;;2.53;1.93;;;18.20;1.00;;;;;;5009498;28;20694;-51
2022/09/30 12:57:02;;;;;;;2.30;1.90;;;18.80;99.90;;;;;;5010066;28;20206;-54
2022/09/30 12:59:51;;;;;;;3.77;1.87;;;18.30;99.90;;;;;;5008469;28;20210;-51
2022/09/30 13:02:30;;;;;;;1.63;1.50;;;18.00;99.90;;;;;;5003241;28;20686;-50
2022/09/30 13:05:25;;;;;;;2.10;1.90;;;17.60;99.90;;;;;;5010996;28;20209;-50
2022/09/30 13:08:04;;;;;;;5.67;1.90;;;17.30;99.90;;;;;;5008473;28;20210;-51
2022/09/30 13:10:43;;;;;;;3.10;1.97;;;17.60;99.90;;;;;;5010960;28;20200;-51
2022/09/30 13:13:09;;;;;;;2.70;1.77;;;17.80;99.90;;;;;;5000223;28;20214;-52
2022/09/30 13:15:41;;;;;;;2.17;1.90;;;17.70;99.90;;;;;;5008924;28;20211;-53
2022/09/30 13:18:20;;;;;;;4.63;2.40;;;17.30;1.00;;;;;;5008008;28;20798;-53
2022/09/30 13:21:09;;;;;;;2.80;1.87;;;17.10;1.00;;;;;;5009916;28;20204;-52
2022/09/30 13:23:46;;;;;;;2.50;1.57;;;17.00;1.00;;;;;;5010941;28;20195;-52
2022/09/30 13:26:25;;;;;;;3.10;1.90;;;17.00;1.00;;;;;;5011576;28;20199;-52
2022/09/30 13:29:15;;;;;;;3.60;2.00;;;16.90;1.00;;;;;;5014418;28;20215;-52
2022/09/30 13:31:44;;;;;;;2.37;1.60;;;16.80;1.00;;;;;;5031611;28;20218;-52
2022/09/30 13:34:20;;;;;;;4.43;1.97;;;16.70;1.00;;;;;;5018197;28;20280;-53
2022/09/30 13:36:50;;;;;;;5.33;1.90;;;16.70;1.00;;;;;;5015353;28;20226;-52